Time;durP1;ratioP1;P1;durP2;ratioP2;P2;SDS_P1;SDS_P2;PMS_P1;PMS_P2;Temp;Humidity;BMP_temperature;BMP_pressure;BME280_temperature;BME280_humidity;BME280_pressure;Samples;Min_cycle;Max_cycle;Signal;HPM_P1;HPM_P2
2021/12/07 00:00:21;;;;;;;9.55;6.00;;;;;;;;;;5080329;28;20069;-69
2021/12/07 00:02:49;;;;;;;11.68;6.63;;;;;;;;;;5082266;28;20040;-68
2021/12/07 00:05:15;;;;;;;9.93;6.13;;;;;;;;;;5081436;28;20047;-69
2021/12/07 00:07:43;;;;;;;8.43;5.85;;;;;;;;;;5080179;28;20044;-69
2021/12/07 00:10:11;;;;;;;10.23;6.00;;;;;;;;;;5079673;28;20448;-69
2021/12/07 00:12:40;;;;;;;10.05;6.53;;;;;;;;;;5080640;28;20052;-69
2021/12/07 00:15:07;;;;;;;10.07;5.88;;;;;;;;;;5082441;28;20078;-69
2021/12/07 00:17:34;;;;;;;11.15;6.47;;;;;;;;;;5079408;28;20109;-69
2021/12/07 00:20:04;;;;;;;11.70;6.40;;;;;;;;;;5077762;28;20048;-69
2021/12/07 00:22:30;;;;;;;9.32;5.75;;;;;;;;;;5079813;28;20071;-69
2021/12/07 00:24:56;;;;;;;8.65;5.63;;;;;;;;;;5080679;28;20063;-69
2021/12/07 00:27:23;;;;;;;9.55;5.95;;;;;;;;;;5076596;28;20780;-69
2021/12/07 00:29:49;;;;;;;10.52;6.45;;;;;;;;;;5078544;28;20052;-69
2021/12/07 00:32:26;;;;;;;9.75;6.28;;;;;;;;;;5082091;28;20497;-68
2021/12/07 00:37:25;;;;;;;11.30;5.95;;;;;;;;;;5082839;28;20405;-69
2021/12/07 00:39:51;;;;;;;9.95;5.20;;;;;;;;;;5085284;28;20074;-69
2021/12/07 00:42:17;;;;;;;10.32;5.82;;;;;;;;;;5069903;28;20118;-69
2021/12/07 00:44:44;;;;;;;9.40;5.53;;;;;;;;;;5084372;28;20050;-69
2021/12/07 00:47:10;;;;;;;8.35;5.50;;;;;;;;;;5084535;28;20361;-69
2021/12/07 00:49:36;;;;;;;9.18;5.60;;;;;;;;;;5084703;28;20756;-69
2021/12/07 00:52:03;;;;;;;8.13;5.60;;;;;;;;;;5084946;28;20051;-68
2021/12/07 00:54:30;;;;;;;8.10;5.28;;;;;;;;;;5081350;28;20192;-69
2021/12/07 00:56:56;;;;;;;8.48;5.30;;;;;;;;;;5084016;28;20512;-68
2021/12/07 00:59:23;;;;;;;10.05;6.05;;;;;;;;;;5084627;28;20347;-68
2021/12/07 01:01:49;;;;;;;10.00;5.95;;;;;;;;;;5084629;28;20620;-69
2021/12/07 01:04:16;;;;;;;10.90;6.30;;;;;;;;;;5081135;28;20055;-68
2021/12/07 01:06:59;;;;;;;10.82;6.07;;;;;;;;;;5083116;28;20040;-68
2021/12/07 01:25:54;;;;;;;9.55;6.25;;;;;;;;;;5083945;28;20044;-69
2021/12/07 01:28:33;;;;;;;9.88;6.30;;;;;;;;;;5085949;28;20043;-69
2021/12/07 01:31:11;;;;;;;8.77;5.93;;;;;;;;;;5069579;28;20051;-70
2021/12/07 01:44:39;;;;;;;12.10;6.60;;;;;;;;;;5083528;28;20051;-69
2021/12/07 01:47:27;;;;;;;10.18;6.70;;;;;;;;;;5084657;28;20079;-69
2021/12/07 02:00:50;;;;;;;11.93;7.57;;;;;;;;;;5079790;28;20137;-69
2021/12/07 02:03:17;;;;;;;12.95;8.18;;;;;;;;;;5082966;28;20187;-69
2021/12/07 02:05:44;;;;;;;13.75;8.60;;;;;;;;;;5083739;28;20047;-69
2021/12/07 02:08:10;;;;;;;13.05;8.55;;;;;;;;;;5083822;28;20050;-69
2021/12/07 02:10:37;;;;;;;14.80;8.55;;;;;;;;;;5083079;28;20052;-69
2021/12/07 02:13:17;;;;;;;13.00;8.70;;;;;;;;;;5083836;28;20066;-69
2021/12/07 02:15:43;;;;;;;14.45;9.63;;;;;;;;;;5083501;28;20047;-69
2021/12/07 02:18:10;;;;;;;14.75;9.15;;;;;;;;;;5083296;28;20056;-70
2021/12/07 02:20:36;;;;;;;12.68;8.90;;;;;;;;;;5081904;28;20059;-70
2021/12/07 02:23:02;;;;;;;16.00;9.48;;;;;;;;;;5079538;28;20107;-69
2021/12/07 02:25:31;;;;;;;14.75;9.40;;;;;;;;;;5084879;28;20040;-69
2021/12/07 02:27:59;;;;;;;13.30;8.77;;;;;;;;;;5082408;28;20460;-69
2021/12/07 02:30:25;;;;;;;13.95;9.15;;;;;;;;;;5081660;28;20044;-69
2021/12/07 02:32:54;;;;;;;14.50;9.52;;;;;;;;;;5082442;28;20174;-69
2021/12/07 02:35:25;;;;;;;16.27;9.80;;;;;;;;;;5083937;28;20048;-69
2021/12/07 02:37:52;;;;;;;14.43;9.52;;;;;;;;;;5082381;28;20567;-69
2021/12/07 02:40:19;;;;;;;15.98;10.38;;;;;;;;;;5081386;28;20082;-69
2021/12/07 02:42:45;;;;;;;13.93;9.35;;;;;;;;;;5082964;28;20052;-69
2021/12/07 02:45:12;;;;;;;14.45;9.35;;;;;;;;;;5081737;28;20056;-69
2021/12/07 02:47:38;;;;;;;14.60;8.98;;;;;;;;;;5081137;28;20051;-69
2021/12/07 02:50:05;;;;;;;14.52;8.73;;;;;;;;;;5084911;28;20063;-69
2021/12/07 02:52:32;;;;;;;13.68;9.30;;;;;;;;;;5084742;28;20451;-69
2021/12/07 02:54:58;;;;;;;15.63;9.98;;;;;;;;;;5081963;28;20048;-69
2021/12/07 02:57:24;;;;;;;14.30;9.40;;;;;;;;;;5082904;28;20345;-69
2021/12/07 03:00:02;;;;;;;15.40;10.38;;;;;;;;;;5084021;28;20048;-69
2021/12/07 03:02:33;;;;;;;16.30;10.80;;;;;;;;;;5082837;28;20082;-69
2021/12/07 03:05:11;;;;;;;13.57;9.15;;;;;;;;;;5081687;28;20599;-69
2021/12/07 03:26:37;;;;;;;18.38;10.95;;;;;;;;;;5081588;28;20248;-69
2021/12/07 03:29:04;;;;;;;17.25;10.43;;;;;;;;;;5082787;28;20396;-69
2021/12/07 03:31:30;;;;;;;16.75;10.40;;;;;;;;;;5080172;28;20056;-69
2021/12/07 03:33:57;;;;;;;19.58;11.00;;;;;;;;;;5082867;28;20067;-69
2021/12/07 03:36:24;;;;;;;20.73;10.07;;;;;;;;;;5082451;28;20051;-68
2021/12/07 03:38:51;;;;;;;16.98;9.55;;;;;;;;;;5078240;28;20048;-68
2021/12/07 03:41:18;;;;;;;16.35;9.82;;;;;;;;;;5057172;28;20512;-68
2021/12/07 03:43:44;;;;;;;15.30;9.32;;;;;;;;;;5079765;28;20051;-68
2021/12/07 03:46:11;;;;;;;14.65;8.73;;;;;;;;;;5083020;28;20731;-69
2021/12/07 03:48:38;;;;;;;16.13;9.38;;;;;;;;;;5081872;28;20048;-69
2021/12/07 03:51:04;;;;;;;16.88;9.68;;;;;;;;;;5082173;28;20058;-68
2021/12/07 03:53:31;;;;;;;17.92;10.13;;;;;;;;;;5079773;28;20043;-69
2021/12/07 03:55:58;;;;;;;16.77;9.00;;;;;;;;;;5079356;28;20172;-67
2021/12/07 03:58:25;;;;;;;15.00;9.63;;;;;;;;;;5078619;28;20059;-68
2021/12/07 04:00:51;;;;;;;17.27;9.02;;;;;;;;;;5082430;28;20052;-68
2021/12/07 04:03:19;;;;;;;18.10;8.68;;;;;;;;;;5067971;28;20048;-68
2021/12/07 04:05:49;;;;;;;29.38;9.40;;;;;;;;;;5079336;28;20777;-67
2021/12/07 04:08:17;;;;;;;19.30;8.23;;;;;;;;;;5081475;28;20055;-68
2021/12/07 04:14:06;;;;;;;23.00;8.50;;;;;;;;;;5073947;28;20110;-68
2021/12/07 04:16:33;;;;;;;18.33;8.17;;;;;;;;;;5083962;28;20056;-67
2021/12/07 04:18:59;;;;;;;22.90;8.23;;;;;;;;;;5086005;28;20044;-67
2021/12/07 04:21:26;;;;;;;17.75;7.85;;;;;;;;;;5084323;28;20493;-67
2021/12/07 04:23:52;;;;;;;15.20;7.25;;;;;;;;;;5070628;28;20035;-67
2021/12/07 04:26:19;;;;;;;15.30;7.78;;;;;;;;;;5085715;28;20047;-68
2021/12/07 04:28:45;;;;;;;18.88;6.95;;;;;;;;;;5081778;28;20051;-67
2021/12/07 04:31:12;;;;;;;13.82;6.68;;;;;;;;;;5082442;28;20054;-67
2021/12/07 04:33:39;;;;;;;20.88;6.10;;;;;;;;;;5083395;28;20055;-67
2021/12/07 04:36:06;;;;;;;14.75;6.07;;;;;;;;;;5084687;28;20051;-68
2021/12/07 04:38:33;;;;;;;15.82;5.75;;;;;;;;;;5061154;28;20145;-68
2021/12/07 04:40:59;;;;;;;16.02;5.93;;;;;;;;;;5086645;28;20498;-68
2021/12/07 04:43:26;;;;;;;20.30;6.78;;;;;;;;;;5086207;28;20048;-68
2021/12/07 04:46:02;;;;;;;15.00;5.18;;;;;;;;;;5082680;28;20043;-68
2021/12/07 04:59:13;;;;;;;17.15;4.78;;;;;;;;;;5085004;28;20047;-68
2021/12/07 05:01:40;;;;;;;12.50;4.72;;;;;;;;;;5083747;28;20051;-67
2021/12/07 05:04:12;;;;;;;12.20;5.25;;;;;;;;;;5084952;28;20555;-68
2021/12/07 05:06:49;;;;;;;18.98;5.22;;;;;;;;;;5071336;28;20047;-68
2021/12/07 05:09:32;;;;;;;18.25;5.55;;;;;;;;;;5085885;28;20048;-68
2021/12/07 05:14:31;;;;;;;17.45;5.82;;;;;;;;;;5066240;28;20048;-68
2021/12/07 05:25:22;;;;;;;17.50;6.50;;;;;;;;;;5065007;28;20437;-67
2021/12/07 05:38:41;;;;;;;23.15;6.47;;;;;;;;;;5075750;28;20134;-68
2021/12/07 05:41:08;;;;;;;17.98;5.43;;;;;;;;;;5075406;28;20044;-68
2021/12/07 05:43:34;;;;;;;17.58;5.85;;;;;;;;;;5067688;28;20401;-68
2021/12/07 05:46:02;;;;;;;21.95;5.68;;;;;;;;;;5057910;28;20044;-68
2021/12/07 05:48:29;;;;;;;15.27;5.38;;;;;;;;;;5067956;28;20471;-68
2021/12/07 05:50:55;;;;;;;16.90;4.78;;;;;;;;;;5075171;28;20128;-68
2021/12/07 05:53:21;;;;;;;21.02;5.20;;;;;;;;;;5068299;28;20405;-68
2021/12/07 05:55:48;;;;;;;17.98;5.25;;;;;;;;;;5076228;28;20049;-68
2021/12/07 05:58:14;;;;;;;18.33;4.68;;;;;;;;;;5079063;28;20835;-68
2021/12/07 06:00:43;;;;;;;18.30;4.82;;;;;;;;;;5067816;28;20386;-68
2021/12/07 06:03:10;;;;;;;17.83;4.72;;;;;;;;;;5076723;28;20098;-68
2021/12/07 06:05:38;;;;;;;17.17;4.53;;;;;;;;;;5067265;28;20041;-68
2021/12/07 06:08:04;;;;;;;15.82;4.93;;;;;;;;;;5067857;28;20457;-68
2021/12/07 06:10:31;;;;;;;20.35;5.07;;;;;;;;;;5067242;28;20059;-68
2021/12/07 06:12:57;;;;;;;17.85;4.90;;;;;;;;;;5071709;28;20053;-68
2021/12/07 06:15:24;;;;;;;17.00;4.70;;;;;;;;;;5067528;28;20492;-68
2021/12/07 06:17:51;;;;;;;20.13;4.38;;;;;;;;;;5066621;28;20052;-68
2021/12/07 06:20:18;;;;;;;15.00;4.40;;;;;;;;;;5075112;28;20127;-68
2021/12/07 06:23:05;;;;;;;12.88;4.32;;;;;;;;;;5075405;28;20075;-68
2021/12/07 06:25:31;;;;;;;16.90;4.25;;;;;;;;;;5075154;28;20048;-68
2021/12/07 06:27:57;;;;;;;17.27;4.70;;;;;;;;;;5067890;28;20051;-69
2021/12/07 06:30:23;;;;;;;17.65;4.57;;;;;;;;;;5068398;28;20041;-68
2021/12/07 06:32:50;;;;;;;21.80;4.78;;;;;;;;;;5077283;28;20060;-68
2021/12/07 06:35:19;;;;;;;19.00;4.55;;;;;;;;;;5049485;28;20435;-68
2021/12/07 06:37:45;;;;;;;15.18;4.22;;;;;;;;;;5075518;28;20114;-68
2021/12/07 06:40:16;;;;;;;13.32;3.20;;;;;;;;;;5067108;28;20103;-68
2021/12/07 06:42:43;;;;;;;12.65;3.63;;;;;;;;;;5066423;28;20394;-68
2021/12/07 06:45:13;;;;;;;16.30;3.80;;;;;;;;;;5066560;28;20048;-68
2021/12/07 06:47:39;;;;;;;17.58;3.22;;;;;;;;;;5066198;28;20048;-68
2021/12/07 06:50:07;;;;;;;14.38;4.03;;;;;;;;;;5066071;28;20044;-68
2021/12/07 06:52:34;;;;;;;28.67;4.63;;;;;;;;;;5066722;28;20044;-69
2021/12/07 06:55:01;;;;;;;12.30;3.50;;;;;;;;;;5066414;28;20052;-68
2021/12/07 06:57:27;;;;;;;13.50;3.70;;;;;;;;;;5066440;28;20351;-68
2021/12/07 06:59:54;;;;;;;15.35;3.60;;;;;;;;;;5079640;28;20044;-68
2021/12/07 07:02:20;;;;;;;23.98;4.35;;;;;;;;;;5065660;28;20055;-68
2021/12/07 07:04:46;;;;;;;11.80;3.50;;;;;;;;;;5065712;28;20086;-68
2021/12/07 07:07:13;;;;;;;13.18;3.53;;;;;;;;;;5070501;28;20526;-68
2021/12/07 07:09:39;;;;;;;15.77;3.97;;;;;;;;;;5068075;28;20044;-68
2021/12/07 07:12:06;;;;;;;11.60;3.45;;;;;;;;;;5070114;28;20040;-68
2021/12/07 07:14:32;;;;;;;11.00;3.35;;;;;;;;;;5069843;28;20530;-68
2021/12/07 07:16:59;;;;;;;17.02;4.15;;;;;;;;;;5066291;28;20041;-68
2021/12/07 07:19:25;;;;;;;17.55;4.22;;;;;;;;;;5049187;28;20060;-68
2021/12/07 07:21:51;;;;;;;13.75;4.00;;;;;;;;;;5072313;28;20378;-68
2021/12/07 07:24:17;;;;;;;14.40;3.85;;;;;;;;;;5079229;28;20048;-67
2021/12/07 07:26:44;;;;;;;19.35;3.78;;;;;;;;;;5066203;28;20044;-68
2021/12/07 07:29:10;;;;;;;19.17;3.80;;;;;;;;;;5070293;28;20754;-68
2021/12/07 07:31:40;;;;;;;12.23;3.35;;;;;;;;;;5065307;28;20048;-68
2021/12/07 07:34:06;;;;;;;11.98;3.28;;;;;;;;;;5065764;28;20465;-68
2021/12/07 07:36:33;;;;;;;15.80;3.75;;;;;;;;;;5056333;28;20063;-68
2021/12/07 07:38:59;;;;;;;21.55;5.53;;;;;;;;;;5067917;28;20052;-68
2021/12/07 07:41:25;;;;;;;16.25;3.75;;;;;;;;;;5072410;28;20576;-68
2021/12/07 07:43:52;;;;;;;13.32;3.70;;;;;;;;;;5064902;28;20059;-68
2021/12/07 07:46:18;;;;;;;18.60;3.95;;;;;;;;;;5066628;28;20049;-68
2021/12/07 07:48:45;;;;;;;16.35;4.05;;;;;;;;;;5067576;28;20171;-68
2021/12/07 07:51:12;;;;;;;19.15;4.28;;;;;;;;;;5054001;28;20056;-69
2021/12/07 07:53:38;;;;;;;12.77;3.55;;;;;;;;;;5071866;28;20072;-69
2021/12/07 07:56:04;;;;;;;11.52;3.33;;;;;;;;;;5066227;28;20406;-69
2021/12/07 07:58:31;;;;;;;10.77;3.33;;;;;;;;;;5070637;28;20063;-69
2021/12/07 08:00:58;;;;;;;13.25;3.58;;;;;;;;;;5066379;28;20072;-69
2021/12/07 08:03:25;;;;;;;21.25;4.38;;;;;;;;;;5066963;28;20053;-68
2021/12/07 08:05:51;;;;;;;23.13;3.42;;;;;;;;;;5064856;28;20048;-68
2021/12/07 08:08:19;;;;;;;19.52;3.70;;;;;;;;;;5069512;28;20380;-68
2021/12/07 08:10:46;;;;;;;16.73;3.23;;;;;;;;;;5069239;28;20044;-68
2021/12/07 08:13:14;;;;;;;19.75;4.15;;;;;;;;;;5069730;28;20044;-68
2021/12/07 08:15:43;;;;;;;10.68;3.10;;;;;;;;;;5065199;28;20421;-68
2021/12/07 08:18:09;;;;;;;;;;;;;;;;;;5072870;28;20049;-68
2021/12/07 08:20:36;;;;;;;10.00;2.95;;;;;;;;;;5066197;28;19928;-68
2021/12/07 08:23:04;;;;;;;20.15;4.07;;;;;;;;;;5065399;28;20044;-68
2021/12/07 08:25:31;;;;;;;17.98;3.30;;;;;;;;;;5066576;28;20049;-68
2021/12/07 08:27:58;;;;;;;21.65;3.38;;;;;;;;;;5069271;28;20520;-68
2021/12/07 08:30:24;;;;;;;10.90;3.50;;;;;;;;;;5070784;28;20051;-68
2021/12/07 08:32:51;;;;;;;20.13;4.03;;;;;;;;;;5065262;28;20048;-68
2021/12/07 08:35:18;;;;;;;20.38;4.63;;;;;;;;;;5065323;28;20082;-69
2021/12/07 08:37:46;;;;;;;13.38;4.38;;;;;;;;;;5064734;28;20063;-69
2021/12/07 08:40:14;;;;;;;16.48;4.72;;;;;;;;;;5065731;28;20052;-68
2021/12/07 08:42:40;;;;;;;12.15;4.80;;;;;;;;;;5072737;28;20044;-69
2021/12/07 08:45:07;;;;;;;21.33;6.45;;;;;;;;;;5065575;28;20888;-68
2021/12/07 08:47:34;;;;;;;21.23;5.72;;;;;;;;;;5065434;28;20788;-69
2021/12/07 08:50:09;;;;;;;13.30;5.80;;;;;;;;;;5073825;28;20056;-69
2021/12/07 08:52:35;;;;;;;18.83;6.50;;;;;;;;;;5077680;28;20470;-69
2021/12/07 09:00:26;;;;;;;15.93;5.82;;;;;;;;;;5079597;28;20051;-68
2021/12/07 09:02:53;;;;;;;17.48;6.13;;;;;;;;;;5051195;28;20044;-68
2021/12/07 09:05:20;;;;;;;15.23;6.95;;;;;;;;;;5068676;28;20071;-69
2021/12/07 09:07:46;;;;;;;27.58;7.53;;;;;;;;;;5068848;28;20056;-68
2021/12/07 09:10:13;;;;;;;20.15;6.90;;;;;;;;;;5067826;28;20045;-69
2021/12/07 09:12:40;;;;;;;22.45;7.88;;;;;;;;;;5074566;28;20060;-69
2021/12/07 09:15:06;;;;;;;25.23;6.85;;;;;;;;;;5068668;28;20132;-69
2021/12/07 09:17:33;;;;;;;16.92;7.25;;;;;;;;;;5068600;28;20120;-69
2021/12/07 09:19:59;;;;;;;19.83;6.82;;;;;;;;;;5069110;28;20435;-69
2021/12/07 09:22:27;;;;;;;19.95;6.75;;;;;;;;;;5077660;28;20053;-68
2021/12/07 09:24:54;;;;;;;21.30;6.45;;;;;;;;;;5068485;28;20047;-68
2021/12/07 09:27:20;;;;;;;23.35;6.63;;;;;;;;;;5074123;28;20584;-68
2021/12/07 09:29:46;;;;;;;31.63;7.93;;;;;;;;;;5068998;28;20067;-69
2021/12/07 09:32:13;;;;;;;29.70;7.57;;;;;;;;;;5068407;28;20051;-69
2021/12/07 09:34:39;;;;;;;25.33;8.23;;;;;;;;;;5067268;28;20059;-69
2021/12/07 09:37:05;;;;;;;22.38;6.85;;;;;;;;;;5068804;28;20037;-69
2021/12/07 09:39:32;;;;;;;19.25;6.55;;;;;;;;;;5050165;28;20506;-69
2021/12/07 09:41:58;;;;;;;20.70;7.50;;;;;;;;;;5068017;28;20417;-68
2021/12/07 09:44:24;;;;;;;26.75;7.35;;;;;;;;;;5074838;28;20056;-69
2021/12/07 09:46:51;;;;;;;25.67;7.30;;;;;;;;;;5068516;28;20251;-68
2021/12/07 09:49:17;;;;;;;26.85;7.80;;;;;;;;;;5067611;28;20297;-70
2021/12/07 09:51:44;;;;;;;23.92;7.68;;;;;;;;;;5068860;28;20048;-69
2021/12/07 09:54:11;;;;;;;17.35;7.03;;;;;;;;;;5075118;28;20044;-69
2021/12/07 09:56:37;;;;;;;22.48;7.18;;;;;;;;;;5067633;28;20049;-69
2021/12/07 09:59:05;;;;;;;26.98;8.00;;;;;;;;;;5068710;28;20052;-69
2021/12/07 10:01:32;;;;;;;22.27;7.05;;;;;;;;;;5072138;28;20055;-69
2021/12/07 10:03:59;;;;;;;21.80;6.90;;;;;;;;;;5076395;28;20551;-69
2021/12/07 10:06:25;;;;;;;23.75;6.88;;;;;;;;;;5073484;28;20681;-69
2021/12/07 10:08:51;;;;;;;17.90;6.35;;;;;;;;;;5069758;28;20055;-69
2021/12/07 10:11:18;;;;;;;18.40;7.03;;;;;;;;;;5067334;28;20051;-69
2021/12/07 10:13:46;;;;;;;32.90;7.75;;;;;;;;;;5067992;28;20053;-69
2021/12/07 10:16:14;;;;;;;19.08;7.40;;;;;;;;;;5067320;28;20040;-69
2021/12/07 10:18:42;;;;;;;23.98;7.80;;;;;;;;;;5066937;28;20044;-69
2021/12/07 10:21:13;;;;;;;16.58;5.93;;;;;;;;;;5067152;28;20048;-69
2021/12/07 10:23:41;;;;;;;18.48;7.00;;;;;;;;;;5066902;28;20044;-69
2021/12/07 10:26:09;;;;;;;24.13;6.85;;;;;;;;;;5066864;28;20476;-69
2021/12/07 10:28:42;;;;;;;17.60;6.10;;;;;;;;;;5072970;28;20049;-69
2021/12/07 10:31:08;;;;;;;24.95;6.90;;;;;;;;;;5069215;28;20902;-69
2021/12/07 10:33:41;;;;;;;20.70;6.20;;;;;;;;;;5065755;28;20642;-69
2021/12/07 10:36:07;;;;;;;17.40;6.35;;;;;;;;;;5069194;28;20477;-69
2021/12/07 10:38:34;;;;;;;27.25;7.05;;;;;;;;;;5071550;28;20079;-69
2021/12/07 10:41:02;;;;;;;20.23;6.05;;;;;;;;;;5072980;28;20481;-69
2021/12/07 10:43:47;;;;;;;17.08;6.05;;;;;;;;;;5072861;28;20135;-69
2021/12/07 10:46:32;;;;;;;18.23;5.88;;;;;;;;;;5074655;28;20043;-69
2021/12/07 10:49:17;;;;;;;34.47;7.53;;;;;;;;;;5074673;28;20052;-68
2021/12/07 10:52:04;;;;;;;22.40;6.07;;;;;;;;;;5076397;28;20048;-69
2021/12/07 10:54:37;;;;;;;18.52;6.20;;;;;;;;;;5074140;28;20045;-69
2021/12/07 10:57:05;;;;;;;18.30;6.10;;;;;;;;;;5067659;28;20087;-69
2021/12/07 10:59:31;;;;;;;13.45;5.03;;;;;;;;;;5078459;28;20040;-69
2021/12/07 11:02:09;;;;;;;20.60;6.97;;;;;;;;;;5066710;28;20440;-70
2021/12/07 11:04:36;;;;;;;20.63;6.30;;;;;;;;;;5066267;28;20080;-69
2021/12/07 11:07:13;;;;;;;16.48;5.55;;;;;;;;;;5066484;28;20083;-69
2021/12/07 11:09:39;;;;;;;14.63;5.28;;;;;;;;;;5065514;28;20049;-69
2021/12/07 11:12:10;;;;;;;21.10;6.57;;;;;;;;;;5069932;28;20051;-70
2021/12/07 11:14:39;;;;;;;16.15;6.03;;;;;;;;;;5065775;28;20148;-70
2021/12/07 11:17:07;;;;;;;13.60;5.97;;;;;;;;;;5066238;28;20052;-69
2021/12/07 11:19:33;;;;;;;18.05;5.35;;;;;;;;;;5065499;28;20055;-70
2021/12/07 11:22:00;;;;;;;23.70;6.05;;;;;;;;;;5066389;28;20048;-70
2021/12/07 11:24:38;;;;;;;18.80;5.40;;;;;;;;;;5075031;28;20051;-70
2021/12/07 11:29:56;;;;;;;13.98;5.18;;;;;;;;;;5084056;28;20418;-71
2021/12/07 11:32:22;;;;;;;14.27;4.90;;;;;;;;;;5077973;28;20063;-70
2021/12/07 11:34:49;;;;;;;15.30;4.95;;;;;;;;;;5076904;28;20052;-70
2021/12/07 11:37:15;;;;;;;13.05;4.80;;;;;;;;;;5080295;28;20043;-70
2021/12/07 11:39:49;;;;;;;16.77;4.88;;;;;;;;;;5081905;28;20052;-70
2021/12/07 11:42:15;;;;;;;15.15;5.22;;;;;;;;;;5067333;28;20414;-70
2021/12/07 11:44:47;;;;;;;22.80;5.05;;;;;;;;;;5081678;28;20055;-70
2021/12/07 11:47:13;;;;;;;14.40;4.55;;;;;;;;;;5081620;28;20048;-70
2021/12/07 11:49:40;;;;;;;14.52;4.35;;;;;;;;;;5075547;28;20039;-70
2021/12/07 11:52:07;;;;;;;18.98;4.85;;;;;;;;;;5081621;28;20040;-70
2021/12/07 11:54:38;;;;;;;16.98;5.10;;;;;;;;;;5086789;28;20090;-70
2021/12/07 11:57:06;;;;;;;13.07;3.83;;;;;;;;;;5086879;28;20416;-69
2021/12/07 11:59:32;;;;;;;18.08;5.13;;;;;;;;;;5084865;28;20070;-70
2021/12/07 12:01:59;;;;;;;12.95;5.20;;;;;;;;;;5077491;28;20577;-70
2021/12/07 12:04:25;;;;;;;20.85;5.13;;;;;;;;;;5080855;28;20048;-69
2021/12/07 12:06:54;;;;;;;16.85;5.03;;;;;;;;;;5083043;28;20082;-69
2021/12/07 12:09:22;;;;;;;15.73;4.55;;;;;;;;;;5082634;28;20036;-69
2021/12/07 12:12:09;;;;;;;16.65;4.65;;;;;;;;;;5079321;28;20066;-69
2021/12/07 12:14:47;;;;;;;12.60;4.38;;;;;;;;;;5081538;28;20048;-69
2021/12/07 12:17:13;;;;;;;9.90;4.82;;;;;;;;;;5078087;28;20048;-69
2021/12/07 12:19:49;;;;;;;19.65;5.03;;;;;;;;;;5081244;28;20067;-69
2021/12/07 12:22:26;;;;;;;14.23;4.60;;;;;;;;;;5080726;28;20483;-69
2021/12/07 12:24:54;;;;;;;14.63;4.25;;;;;;;;;;5057800;28;20062;-69
2021/12/07 12:27:25;;;;;;;16.77;4.50;;;;;;;;;;5082027;28;20055;-69
2021/12/07 12:29:52;;;;;;;17.13;4.85;;;;;;;;;;5083593;28;20051;-70
2021/12/07 12:32:37;;;;;;;12.25;4.53;;;;;;;;;;5081964;28;20048;-69
2021/12/07 12:35:04;;;;;;;15.63;4.43;;;;;;;;;;5083896;28;20276;-69
2021/12/07 12:37:32;;;;;;;17.85;4.97;;;;;;;;;;5070041;28;20074;-70
2021/12/07 12:40:01;;;;;;;15.25;4.35;;;;;;;;;;5081048;28;20079;-69
2021/12/07 12:42:27;;;;;;;10.93;4.00;;;;;;;;;;5081849;28;20079;-71
2021/12/07 12:44:58;;;;;;;9.70;4.07;;;;;;;;;;5078977;28;20050;-70
2021/12/07 12:47:26;;;;;;;17.00;4.40;;;;;;;;;;5081476;28;20040;-70
2021/12/07 12:49:52;;;;;;;13.05;4.05;;;;;;;;;;5081033;28;20072;-70
2021/12/07 12:52:36;;;;;;;13.70;4.15;;;;;;;;;;5081283;28;20066;-69
2021/12/07 12:55:02;;;;;;;13.15;4.38;;;;;;;;;;5083591;28;20043;-70
2021/12/07 12:57:29;;;;;;;18.85;4.05;;;;;;;;;;5070334;28;20043;-70
2021/12/07 12:59:55;;;;;;;20.60;4.10;;;;;;;;;;5086971;28;20048;-70
2021/12/07 13:02:27;;;;;;;12.65;3.53;;;;;;;;;;5071267;28;20055;-70
2021/12/07 13:05:02;;;;;;;18.70;3.33;;;;;;;;;;5071344;28;20465;-70
2021/12/07 13:07:28;;;;;;;12.18;3.63;;;;;;;;;;5080975;28;20051;-70
2021/12/07 13:09:57;;;;;;;11.13;3.20;;;;;;;;;;5081041;28;20043;-69
2021/12/07 13:12:25;;;;;;;11.98;3.17;;;;;;;;;;5081355;28;20484;-70
2021/12/07 13:14:56;;;;;;;16.80;3.45;;;;;;;;;;5080685;28;20048;-69
2021/12/07 13:17:23;;;;;;;16.13;3.53;;;;;;;;;;5081360;28;20052;-69
2021/12/07 13:20:07;;;;;;;10.65;3.28;;;;;;;;;;5083115;28;20044;-69
2021/12/07 13:22:34;;;;;;;19.45;4.00;;;;;;;;;;5089395;28;20051;-69
2021/12/07 13:25:12;;;;;;;13.40;3.45;;;;;;;;;;5085421;28;20075;-69
2021/12/07 13:27:55;;;;;;;14.25;3.30;;;;;;;;;;5080238;28;20048;-69
2021/12/07 13:30:22;;;;;;;16.83;4.45;;;;;;;;;;5078322;28;20059;-69
2021/12/07 13:33:04;;;;;;;11.02;3.72;;;;;;;;;;5080100;28;20044;-69
2021/12/07 13:35:31;;;;;;;15.52;4.13;;;;;;;;;;5079766;28;20040;-69
2021/12/07 13:37:57;;;;;;;14.98;3.80;;;;;;;;;;5082917;28;20714;-69
2021/12/07 13:40:24;;;;;;;8.80;3.90;;;;;;;;;;5084085;28;20051;-69
2021/12/07 13:42:52;;;;;;;15.18;4.20;;;;;;;;;;5067221;28;20748;-69
2021/12/07 13:45:21;;;;;;;13.48;4.13;;;;;;;;;;5079884;28;20555;-69
2021/12/07 13:47:50;;;;;;;9.50;3.38;;;;;;;;;;5080097;28;20059;-70
2021/12/07 13:50:22;;;;;;;15.38;4.30;;;;;;;;;;5086934;28;20573;-69
2021/12/07 13:52:50;;;;;;;13.82;3.50;;;;;;;;;;5080785;28;20048;-69
2021/12/07 13:55:19;;;;;;;14.80;5.07;;;;;;;;;;5088722;28;20114;-68
2021/12/07 13:57:50;;;;;;;11.65;4.20;;;;;;;;;;5087693;28;20412;-68
2021/12/07 14:00:18;;;;;;;11.68;3.65;;;;;;;;;;5072153;28;20059;-69
2021/12/07 14:02:49;;;;;;;12.65;3.60;;;;;;;;;;5087692;28;20052;-69
2021/12/07 14:05:17;;;;;;;15.27;4.35;;;;;;;;;;5088091;28;20394;-70
2021/12/07 14:07:45;;;;;;;13.23;3.58;;;;;;;;;;5085904;28;20036;-70
2021/12/07 14:10:17;;;;;;;12.05;3.88;;;;;;;;;;5074012;28;20040;-69
2021/12/07 14:12:44;;;;;;;21.42;4.32;;;;;;;;;;5086902;28;20047;-70
2021/12/07 14:15:16;;;;;;;14.60;4.55;;;;;;;;;;5084475;28;20692;-70
2021/12/07 14:17:48;;;;;;;13.98;4.03;;;;;;;;;;5072342;28;20198;-69
2021/12/07 14:20:25;;;;;;;14.57;3.42;;;;;;;;;;5086607;28;20055;-69
2021/12/07 14:22:51;;;;;;;9.50;3.20;;;;;;;;;;5087577;28;20141;-70
2021/12/07 14:25:18;;;;;;;12.27;4.05;;;;;;;;;;5083168;28;20127;-70
2021/12/07 14:27:45;;;;;;;12.50;4.05;;;;;;;;;;5078510;28;20048;-70
2021/12/07 14:30:12;;;;;;;14.02;3.40;;;;;;;;;;5076659;28;20139;-70
2021/12/07 14:32:43;;;;;;;12.35;3.55;;;;;;;;;;5075201;28;20755;-70
2021/12/07 14:35:10;;;;;;;16.30;3.03;;;;;;;;;;5082339;28;20449;-70
2021/12/07 14:37:36;;;;;;;12.75;3.60;;;;;;;;;;5080991;28;20070;-70
2021/12/07 14:40:04;;;;;;;6.90;3.08;;;;;;;;;;5061456;28;20665;-70
2021/12/07 14:42:32;;;;;;;10.88;3.47;;;;;;;;;;5082938;28;20044;-70
2021/12/07 14:44:58;;;;;;;9.20;3.22;;;;;;;;;;5087981;28;20101;-69
2021/12/07 14:47:26;;;;;;;16.05;4.93;;;;;;;;;;5070010;28;20043;-70
2021/12/07 14:49:54;;;;;;;10.95;4.38;;;;;;;;;;5085484;28;20443;-70
2021/12/07 14:52:24;;;;;;;12.40;4.32;;;;;;;;;;5079253;28;20855;-70
2021/12/07 14:54:51;;;;;;;12.93;4.13;;;;;;;;;;5077024;28;20043;-70
2021/12/07 14:57:20;;;;;;;13.25;3.80;;;;;;;;;;5076179;28;20058;-70
2021/12/07 14:59:52;;;;;;;9.75;3.35;;;;;;;;;;5084698;28;20085;-70
2021/12/07 15:02:19;;;;;;;15.02;3.78;;;;;;;;;;5086819;28;20158;-70
2021/12/07 15:04:56;;;;;;;12.68;3.33;;;;;;;;;;5079434;28;20048;-70
2021/12/07 15:07:30;;;;;;;10.57;3.75;;;;;;;;;;5085696;28;20043;-71
2021/12/07 15:09:58;;;;;;;13.80;3.72;;;;;;;;;;5080439;28;20052;-71
2021/12/07 15:12:25;;;;;;;10.43;3.20;;;;;;;;;;5076038;28;20078;-71
2021/12/07 15:14:55;;;;;;;11.38;3.00;;;;;;;;;;5076788;28;20058;-70
2021/12/07 15:17:21;;;;;;;13.40;3.03;;;;;;;;;;5078144;28;20052;-70
2021/12/07 15:19:48;;;;;;;10.20;3.15;;;;;;;;;;5077035;28;20051;-71
2021/12/07 15:22:14;;;;;;;10.98;2.83;;;;;;;;;;5077702;28;20048;-70
2021/12/07 15:24:40;;;;;;;14.32;3.33;;;;;;;;;;5078347;28;20052;-70
2021/12/07 15:27:07;;;;;;;7.72;2.78;;;;;;;;;;5076488;28;20055;-70
2021/12/07 15:29:35;;;;;;;12.02;2.90;;;;;;;;;;5077707;28;20214;-70
2021/12/07 15:32:03;;;;;;;12.00;2.90;;;;;;;;;;5076506;28;20044;-70
2021/12/07 15:34:31;;;;;;;14.50;3.80;;;;;;;;;;5086106;28;20052;-70
2021/12/07 15:37:06;;;;;;;7.70;2.65;;;;;;;;;;5076064;28;20375;-70
2021/12/07 15:39:33;;;;;;;10.40;2.80;;;;;;;;;;5076129;28;20048;-70
2021/12/07 15:42:05;;;;;;;12.07;3.28;;;;;;;;;;5078487;28;20091;-71
2021/12/07 15:44:32;;;;;;;9.23;2.75;;;;;;;;;;5077236;28;20481;-70
2021/12/07 15:47:01;;;;;;;15.70;3.40;;;;;;;;;;5076929;28;20048;-70
2021/12/07 15:49:29;;;;;;;13.45;2.97;;;;;;;;;;5077679;28;20059;-70
2021/12/07 15:51:57;;;;;;;11.05;3.28;;;;;;;;;;5079845;28;20054;-70
2021/12/07 15:54:23;;;;;;;13.15;3.10;;;;;;;;;;5076956;28;20048;-70
2021/12/07 15:56:55;;;;;;;13.57;2.95;;;;;;;;;;5076422;28;20067;-70
2021/12/07 15:59:21;;;;;;;14.80;3.00;;;;;;;;;;5081939;28;20051;-70
2021/12/07 16:01:47;;;;;;;14.02;3.90;;;;;;;;;;5081908;28;20047;-70
2021/12/07 16:04:21;;;;;;;11.25;3.28;;;;;;;;;;5086365;28;20051;-70
2021/12/07 16:06:47;;;;;;;8.77;3.38;;;;;;;;;;5093633;28;20044;-70
2021/12/07 16:09:14;;;;;;;10.35;2.70;;;;;;;;;;5084580;28;20048;-70
2021/12/07 16:11:41;;;;;;;13.02;3.10;;;;;;;;;;5082105;28;20040;-70
2021/12/07 16:14:07;;;;;;;12.63;2.92;;;;;;;;;;5082670;28;20043;-71
2021/12/07 16:16:33;;;;;;;12.25;3.22;;;;;;;;;;5086211;28;20059;-70
2021/12/07 16:19:00;;;;;;;11.32;3.72;;;;;;;;;;5086028;28;20059;-71
2021/12/07 16:21:27;;;;;;;8.40;2.70;;;;;;;;;;5089334;28;20137;-70